Terminal Aerodrome Forecast
Issued by NWS

Current Version | Previous Version | Text Only | Print | Product List | Glossary Off
Versions: 1 2 3 4 5 6 7 8 9 10 11 12 13 14 15 16 17 18 19 20 21 22 23

360
FTUS41 KRLX 101023 AAB
TAFCKB
TAF AMD
KCKB 101023Z 1010/1106 25009G16KT 4SM -SHSN OVC015
     FM101300 25009KT P6SM OVC025
     FM101700 25009KT 6SM -SHSN OVC025
     FM102100 25010G19KT 5SM -SHSN BKN025
     FM110000 25010G21KT 4SM -SHSN OVC015
     FM110200 26010G21KT P6SM OVC015=

USA.gov is the U.S. government's official web portal to all federal, state and local government web resources and services.